createdAt,value
2022-09-17T00:01:17.621Z,99.90
2022-09-17T00:05:39.979Z,99.90
2022-09-17T00:10:02.539Z,99.90
2022-09-17T00:14:25.018Z,99.90
2022-09-17T00:18:47.479Z,99.90
2022-09-17T00:23:10.918Z,99.90
2022-09-17T00:27:33.220Z,99.90
2022-09-17T00:31:55.420Z,99.90
2022-09-17T00:36:18.079Z,99.90
2022-09-17T00:40:40.679Z,99.90
2022-09-17T00:45:04.217Z,99.90
2022-09-17T00:49:31.199Z,99.90
2022-09-17T00:53:53.598Z,99.90
2022-09-17T00:58:19.200Z,99.90
2022-09-17T01:02:43.401Z,99.90
2022-09-17T01:07:14.259Z,99.90
2022-09-17T01:11:36.469Z,99.90
2022-09-17T01:16:32.590Z,99.90
2022-09-17T01:21:43.241Z,99.90
2022-09-17T01:26:59.499Z,99.90
2022-09-17T01:32:22.759Z,99.90
2022-09-17T01:36:59.678Z,99.90
2022-09-17T01:41:41.879Z,99.90
2022-09-17T01:46:16.165Z,99.90
2022-09-17T01:51:06.098Z,99.90
2022-09-17T01:55:35.978Z,99.90
2022-09-17T02:00:05.161Z,99.90
2022-09-17T02:04:45.460Z,99.90
2022-09-17T02:09:19.142Z,99.90
2022-09-17T02:14:03.618Z,99.90
2022-09-17T02:18:55.846Z,99.90
2022-09-17T02:23:40.458Z,99.90
2022-09-17T02:28:26.418Z,99.90
2022-09-17T02:32:49.163Z,99.90
2022-09-17T02:37:11.523Z,99.90
2022-09-17T02:42:17.878Z,99.90
2022-09-17T02:47:34.898Z,99.90
2022-09-17T02:52:32.182Z,99.90
2022-09-17T02:57:26.859Z,99.90
2022-09-17T03:02:41.419Z,99.90
2022-09-17T03:07:12.243Z,99.90
2022-09-17T03:11:34.444Z,99.90
2022-09-17T03:15:57.313Z,99.90
2022-09-17T03:20:20.144Z,99.90
2022-09-17T03:24:42.268Z,99.90
2022-09-17T03:29:04.724Z,99.90
2022-09-17T03:33:26.904Z,99.90
2022-09-17T03:37:49.585Z,99.90
2022-09-17T03:42:11.943Z,99.90
2022-09-17T03:46:34.461Z,99.90
2022-09-17T03:50:57.382Z,99.90
2022-09-17T03:55:19.884Z,99.90
2022-09-17T03:59:42.302Z,99.90
2022-09-17T04:04:04.846Z,99.90
2022-09-17T04:08:27.186Z,99.90
2022-09-17T04:12:52.392Z,99.90
2022-09-17T04:17:18.406Z,99.90
2022-09-17T04:21:40.544Z,99.90
2022-09-17T04:26:02.503Z,99.90
2022-09-17T04:30:25.145Z,99.90
2022-09-17T04:34:47.665Z,99.90
2022-09-17T04:39:10.417Z,99.90
2022-09-17T04:43:32.444Z,99.90
2022-09-17T04:47:54.744Z,99.90
2022-09-17T04:52:17.020Z,99.90
2022-09-17T04:56:39.003Z,99.90
2022-09-17T05:01:01.238Z,99.90
2022-09-17T05:05:24.643Z,99.90
2022-09-17T05:09:46.744Z,99.90
2022-09-17T05:14:08.964Z,99.90
2022-09-17T05:18:31.867Z,99.90
2022-09-17T05:22:54.424Z,99.90
2022-09-17T05:27:16.807Z,99.90
2022-09-17T05:31:38.948Z,99.90
2022-09-17T05:36:01.804Z,99.90
2022-09-17T05:40:23.997Z,99.90
2022-09-17T05:44:46.425Z,99.90
2022-09-17T05:49:08.445Z,99.90
2022-09-17T05:53:30.668Z,99.90
2022-09-17T05:57:53.244Z,99.90
2022-09-17T06:02:15.569Z,99.90
2022-09-17T06:06:39.184Z,99.90
2022-09-17T06:11:08.845Z,99.90
2022-09-17T06:15:31.407Z,99.90
2022-09-17T06:19:53.263Z,99.90
2022-09-17T06:24:15.616Z,99.90
2022-09-17T06:28:41.700Z,99.90
2022-09-17T06:33:04.264Z,99.90
2022-09-17T06:37:32.288Z,99.90
2022-09-17T06:41:54.544Z,99.90
2022-09-17T06:46:17.598Z,99.90
2022-09-17T06:50:42.746Z,99.90
2022-09-17T06:55:06.248Z,99.90
2022-09-17T06:59:28.936Z,99.90
2022-09-17T07:03:51.265Z,99.90
2022-09-17T07:08:13.662Z,99.90
2022-09-17T07:12:44.446Z,99.90
2022-09-17T07:17:08.764Z,99.90
2022-09-17T07:21:30.901Z,99.90
2022-09-17T07:25:58.687Z,99.90
2022-09-17T07:30:21.806Z,99.90
2022-09-17T07:34:44.084Z,99.90
2022-09-17T07:39:06.624Z,99.90
2022-09-17T07:43:34.687Z,99.90
2022-09-17T07:47:56.744Z,99.90
2022-09-17T07:52:19.105Z,99.90
2022-09-17T07:56:41.464Z,99.90
2022-09-17T08:01:05.470Z,99.90
2022-09-17T08:05:28.283Z,99.90
2022-09-17T08:09:50.863Z,99.90
2022-09-17T08:14:15.964Z,99.90
2022-09-17T08:18:38.366Z,99.90
2022-09-17T08:23:01.615Z,99.90
2022-09-17T08:27:24.084Z,99.90
2022-09-17T08:31:46.449Z,99.90
2022-09-17T08:36:12.614Z,99.90
2022-09-17T08:40:46.164Z,99.90
2022-09-17T08:45:14.657Z,99.90
2022-09-17T08:49:55.004Z,99.90
2022-09-17T08:54:48.417Z,99.90
2022-09-17T08:59:39.604Z,99.90
2022-09-17T09:04:31.746Z,99.90
2022-09-17T09:09:09.005Z,99.90
2022-09-17T09:13:49.465Z,99.90
2022-09-17T09:18:25.236Z,99.90
2022-09-17T09:22:50.748Z,99.90
2022-09-17T09:27:29.295Z,99.90
2022-09-17T09:32:38.943Z,99.90
2022-09-17T09:37:16.993Z,99.90
2022-09-17T09:42:29.408Z,99.90
2022-09-17T09:46:54.679Z,99.90
2022-09-17T09:51:29.063Z,99.90
2022-09-17T09:56:26.504Z,99.90
2022-09-17T10:00:48.824Z,99.90
2022-09-17T10:05:12.156Z,99.90
2022-09-17T10:09:37.649Z,99.90
2022-09-17T10:14:21.518Z,99.90
2022-09-17T10:18:44.815Z,99.90
2022-09-17T10:23:07.543Z,99.90
2022-09-17T10:27:30.870Z,99.90
2022-09-17T10:31:56.509Z,99.90
2022-09-17T10:36:46.943Z,99.90
2022-09-17T10:41:18.222Z,99.90
2022-09-17T10:45:45.883Z,99.90
2022-09-17T10:50:27.136Z,99.90
2022-09-17T10:55:33.737Z,99.90
2022-09-17T11:00:17.855Z,99.90
2022-09-17T11:05:03.076Z,99.90
2022-09-17T11:10:02.823Z,99.90
2022-09-17T11:14:54.244Z,92.50
2022-09-17T11:19:58.126Z,88.80
2022-09-17T11:25:02.918Z,88.90
2022-09-17T11:30:08.583Z,94.30
2022-09-17T11:34:57.165Z,98.00
2022-09-17T11:40:01.032Z,99.20
2022-09-17T11:44:33.426Z,99.90
2022-09-17T11:49:14.746Z,99.90
2022-09-17T11:53:48.203Z,99.90
2022-09-17T11:58:49.492Z,99.90
2022-09-17T12:03:49.115Z,99.90
2022-09-17T12:09:01.344Z,99.90
2022-09-17T12:13:42.143Z,99.90
2022-09-17T12:18:51.964Z,99.00
2022-09-17T12:23:22.923Z,98.80
2022-09-17T12:28:12.804Z,99.80
2022-09-17T12:33:20.205Z,99.90
2022-09-17T12:38:06.844Z,99.90
2022-09-17T12:42:50.554Z,99.90
2022-09-17T12:47:56.463Z,99.90
2022-09-17T12:52:30.690Z,99.90
2022-09-17T12:57:14.085Z,99.90
2022-09-17T13:01:45.836Z,99.90
2022-09-17T13:07:02.083Z,99.90
2022-09-17T13:12:17.990Z,99.90
2022-09-17T13:16:53.844Z,99.90
2022-09-17T13:21:34.242Z,99.90
2022-09-17T13:25:56.482Z,99.90
2022-09-17T13:30:21.202Z,99.90
2022-09-17T13:34:43.623Z,99.90
2022-09-17T13:39:09.444Z,99.90
2022-09-17T13:43:31.602Z,99.90
2022-09-17T13:48:11.083Z,99.90
2022-09-17T13:52:44.024Z,99.90
2022-09-17T13:57:14.684Z,99.90
2022-09-17T14:02:16.546Z,99.60
2022-09-17T14:06:38.943Z,98.80
2022-09-17T14:11:05.044Z,99.40
2022-09-17T14:15:42.245Z,99.90
2022-09-17T14:20:06.485Z,99.90
2022-09-17T14:24:37.084Z,99.90
2022-09-17T14:29:41.303Z,99.90
2022-09-17T14:34:14.105Z,99.90
2022-09-17T14:38:45.104Z,99.90
2022-09-17T14:43:11.425Z,99.90
2022-09-17T14:47:33.764Z,99.90
2022-09-17T14:51:58.945Z,99.90
2022-09-17T14:56:23.544Z,99.90
2022-09-17T15:00:53.143Z,99.90
2022-09-17T15:05:32.043Z,99.90
2022-09-17T15:09:55.803Z,99.90
2022-09-17T15:14:34.364Z,99.90
2022-09-17T15:18:59.723Z,99.90
2022-09-17T15:23:26.384Z,99.90
2022-09-17T15:27:48.946Z,99.90
2022-09-17T15:32:14.355Z,99.90
2022-09-17T15:36:36.644Z,99.90
2022-09-17T15:41:26.803Z,99.90
2022-09-17T15:45:49.224Z,99.90
2022-09-17T15:50:21.006Z,99.90
2022-09-17T15:54:43.523Z,99.90
2022-09-17T15:59:23.177Z,99.90
2022-09-17T16:03:45.924Z,99.90
2022-09-17T16:08:23.277Z,99.90
2022-09-17T16:12:45.804Z,99.90
2022-09-17T16:17:42.325Z,99.90
2022-09-17T16:22:04.483Z,99.90
2022-09-17T16:26:34.238Z,99.90
2022-09-17T16:30:56.723Z,99.90
2022-09-17T16:35:25.104Z,99.90
2022-09-17T16:39:47.484Z,99.90
2022-09-17T16:44:09.723Z,99.90
2022-09-17T16:48:33.564Z,99.90
2022-09-17T16:52:55.645Z,99.90
2022-09-17T16:57:18.223Z,99.90
2022-09-17T17:01:40.583Z,99.90
2022-09-17T17:06:04.043Z,99.90
2022-09-17T17:10:29.164Z,99.90
2022-09-17T17:14:52.797Z,99.90
2022-09-17T17:19:15.087Z,99.90
2022-09-17T17:23:37.809Z,99.90
2022-09-17T17:28:00.062Z,99.90
2022-09-17T17:32:24.222Z,99.90
2022-09-17T17:36:50.277Z,99.90
2022-09-17T17:41:15.417Z,99.90
2022-09-17T17:45:39.299Z,99.90
2022-09-17T17:50:01.651Z,99.90
2022-09-17T17:54:23.939Z,99.90
2022-09-17T17:58:46.298Z,99.90
2022-09-17T18:03:10.490Z,99.90
2022-09-17T18:07:32.998Z,99.90
2022-09-17T18:11:55.369Z,99.90
2022-09-17T18:16:17.475Z,99.90
2022-09-17T18:20:39.816Z,99.90
2022-09-17T18:25:02.341Z,99.90
2022-09-17T18:29:24.831Z,99.90
2022-09-17T18:33:47.878Z,99.90
2022-09-17T18:38:10.314Z,99.90
2022-09-17T18:42:33.197Z,99.90
2022-09-17T18:46:55.338Z,99.90
2022-09-17T18:51:18.118Z,99.90
2022-09-17T18:55:46.038Z,99.90
2022-09-17T19:00:11.876Z,99.90
2022-09-17T19:04:34.556Z,99.90
2022-09-17T19:09:01.721Z,99.90
2022-09-17T19:13:23.932Z,99.90
2022-09-17T19:17:46.737Z,99.90
2022-09-17T19:22:09.007Z,99.90
2022-09-17T19:26:34.517Z,99.90
2022-09-17T19:30:57.003Z,99.90
2022-09-17T19:35:19.279Z,99.90
2022-09-17T19:39:41.577Z,99.90
2022-09-17T19:44:04.356Z,99.90
2022-09-17T19:48:26.755Z,99.90
2022-09-17T19:52:48.865Z,99.90
2022-09-17T19:57:11.754Z,99.90
2022-09-17T20:01:35.207Z,99.90
2022-09-17T20:06:03.600Z,99.90
2022-09-17T20:10:25.680Z,99.90
2022-09-17T20:14:47.940Z,99.90
2022-09-17T20:19:16.359Z,99.90
2022-09-17T20:23:39.092Z,99.90
2022-09-17T20:28:04.074Z,99.90
2022-09-17T20:32:26.093Z,99.90
2022-09-17T20:36:48.640Z,99.90
2022-09-17T20:41:13.721Z,99.90
2022-09-17T20:45:36.139Z,99.90
2022-09-17T20:49:58.879Z,99.90
2022-09-17T20:54:21.101Z,99.90
2022-09-17T20:58:48.720Z,99.90
2022-09-17T21:03:11.058Z,99.90
2022-09-17T21:07:33.660Z,99.90
2022-09-17T21:11:55.894Z,99.90
2022-09-17T21:16:18.571Z,99.90
2022-09-17T21:20:41.330Z,99.90
2022-09-17T21:25:04.079Z,99.90
2022-09-17T21:29:26.079Z,99.90
2022-09-17T21:33:51.245Z,99.90
2022-09-17T21:38:14.881Z,99.90
2022-09-17T21:42:38.980Z,99.90
2022-09-17T21:47:01.240Z,99.90
2022-09-17T21:51:42.026Z,99.90
2022-09-17T21:56:14.642Z,99.90
2022-09-17T22:00:37.562Z,99.90
2022-09-17T22:05:00.040Z,99.90
2022-09-17T22:09:25.930Z,99.90
2022-09-17T22:13:59.079Z,99.90
2022-09-17T22:18:22.481Z,99.90
2022-09-17T22:22:44.786Z,99.90
2022-09-17T22:27:07.500Z,99.90
2022-09-17T22:31:30.256Z,99.90
2022-09-17T22:35:52.926Z,99.90
2022-09-17T22:40:15.351Z,99.90
2022-09-17T22:44:37.600Z,99.90
2022-09-17T22:49:00.480Z,99.90
2022-09-17T22:53:23.021Z,99.90
2022-09-17T22:57:45.221Z,99.90
2022-09-17T23:02:08.404Z,99.90
2022-09-17T23:06:34.379Z,99.90
2022-09-17T23:10:57.141Z,99.90
2022-09-17T23:15:19.699Z,99.90
2022-09-17T23:19:42.021Z,99.90
2022-09-17T23:24:04.622Z,99.90
2022-09-17T23:28:26.859Z,99.90
2022-09-17T23:32:52.301Z,99.90
2022-09-17T23:37:14.460Z,99.90
2022-09-17T23:41:40.881Z,99.90
2022-09-17T23:46:03.595Z,99.90
2022-09-17T23:50:26.301Z,99.90
2022-09-17T23:54:48.239Z,99.90
2022-09-17T23:59:11.502Z,99.90
